Time;durP1;ratioP1;P1;durP2;ratioP2;P2;SDS_P1;SDS_P2;PMS_P1;PMS_P2;Temp;Humidity;BMP_temperature;BMP_pressure;BME280_temperature;BME280_humidity;BME280_pressure;Samples;Min_cycle;Max_cycle;Signal;HPM_P1;HPM_P2
2021/04/30 00:00:52;;;;;;;24.70;10.73;;;;;;;;;;5071116;28;20024;-66
2021/04/30 00:03:18;;;;;;;21.73;8.93;;;;;;;;;;5070579;28;20465;-66
2021/04/30 00:05:43;;;;;;;20.30;9.07;;;;;;;;;;5083134;28;20048;-66
2021/04/30 00:08:09;;;;;;;21.23;9.87;;;;;;;;;;5090613;28;20028;-66
2021/04/30 00:10:34;;;;;;;25.40;10.37;;;;;;;;;;5091646;28;20031;-66
2021/04/30 00:12:59;;;;;;;27.33;12.10;;;;;;;;;;5094487;28;20137;-66
2021/04/30 00:15:24;;;;;;;29.03;11.13;;;;;;;;;;5092110;28;20032;-66
2021/04/30 00:17:50;;;;;;;24.70;10.70;;;;;;;;;;5087633;28;20506;-66
2021/04/30 00:20:16;;;;;;;25.87;11.43;;;;;;;;;;5079502;28;20028;-66
2021/04/30 00:22:41;;;;;;;29.30;12.70;;;;;;;;;;5087855;28;20021;-66
2021/04/30 00:25:07;;;;;;;25.07;10.63;;;;;;;;;;5088804;28;20432;-66
2021/04/30 00:27:32;;;;;;;32.77;12.87;;;;;;;;;;5091794;28;20045;-66
2021/04/30 00:29:58;;;;;;;26.13;10.63;;;;;;;;;;5083119;28;20484;-66
2021/04/30 00:32:23;;;;;;;29.50;11.13;;;;;;;;;;5091823;28;20104;-66
2021/04/30 00:34:48;;;;;;;25.87;10.50;;;;;;;;;;5091300;28;20125;-66
2021/04/30 00:37:13;;;;;;;25.47;11.00;;;;;;;;;;5091336;28;20024;-66
2021/04/30 00:39:39;;;;;;;25.07;11.43;;;;;;;;;;5084190;28;20495;-66
2021/04/30 00:42:05;;;;;;;25.70;11.03;;;;;;;;;;5091317;28;20476;-66
2021/04/30 00:44:30;;;;;;;25.33;10.43;;;;;;;;;;5091659;28;20039;-66
2021/04/30 00:46:56;;;;;;;24.77;11.10;;;;;;;;;;5091328;28;20086;-66
2021/04/30 00:49:21;;;;;;;24.30;10.97;;;;;;;;;;5091767;28;20110;-66
2021/04/30 00:51:46;;;;;;;24.20;10.50;;;;;;;;;;5084848;28;20380;-66
2021/04/30 00:54:12;;;;;;;27.83;10.53;;;;;;;;;;5091049;28;20077;-66
2021/04/30 00:56:37;;;;;;;21.83;9.73;;;;;;;;;;5090061;28;20485;-66
2021/04/30 00:59:03;;;;;;;24.53;10.30;;;;;;;;;;5091270;28;20020;-66
2021/04/30 01:01:28;;;;;;;22.53;10.63;;;;;;;;;;5087568;28;20426;-66
2021/04/30 01:03:54;;;;;;;24.13;11.57;;;;;;;;;;5062477;28;20514;-66
2021/04/30 01:06:19;;;;;;;22.90;10.60;;;;;;;;;;5092809;28;20086;-66
2021/04/30 01:08:44;;;;;;;22.37;10.47;;;;;;;;;;5095673;28;20019;-66
2021/04/30 01:11:10;;;;;;;23.80;10.17;;;;;;;;;;5094167;28;20039;-66
2021/04/30 01:13:35;;;;;;;21.90;10.13;;;;;;;;;;5094341;28;20024;-66
2021/04/30 01:16:01;;;;;;;23.87;10.67;;;;;;;;;;5092453;28;20031;-66
2021/04/30 01:18:26;;;;;;;21.67;10.17;;;;;;;;;;5092593;28;20032;-66
2021/04/30 01:20:51;;;;;;;22.93;10.13;;;;;;;;;;5094933;28;20158;-66
2021/04/30 01:23:17;;;;;;;22.07;10.33;;;;;;;;;;5093365;28;20020;-66
2021/04/30 01:25:42;;;;;;;23.33;10.30;;;;;;;;;;5083867;28;20035;-66
2021/04/30 01:28:08;;;;;;;25.47;11.30;;;;;;;;;;5088564;28;20439;-66
2021/04/30 01:30:34;;;;;;;27.23;11.13;;;;;;;;;;5082505;28;20032;-66
2021/04/30 01:33:00;;;;;;;27.37;12.07;;;;;;;;;;5095334;28;20024;-66
2021/04/30 01:35:26;;;;;;;28.50;11.77;;;;;;;;;;5094215;28;20024;-66
2021/04/30 01:37:52;;;;;;;27.50;11.33;;;;;;;;;;5086612;28;20024;-66
2021/04/30 01:40:19;;;;;;;26.50;11.90;;;;;;;;;;5094169;28;20012;-66
2021/04/30 01:43:13;;;;;;;27.47;11.37;;;;;;;;;;5091222;28;20476;-66
2021/04/30 01:45:43;;;;;;;29.13;11.53;;;;;;;;;;5065727;28;20493;-66
2021/04/30 01:48:12;;;;;;;28.37;11.63;;;;;;;;;;5094325;28;20476;-66
2021/04/30 01:50:37;;;;;;;29.47;12.17;;;;;;;;;;5093856;28;20538;-66
2021/04/30 01:53:03;;;;;;;30.40;11.93;;;;;;;;;;5093852;28;20020;-66
2021/04/30 01:55:29;;;;;;;31.33;12.70;;;;;;;;;;5093412;28;20012;-66
2021/04/30 01:57:55;;;;;;;30.53;11.97;;;;;;;;;;5081662;28;20108;-66
2021/04/30 02:00:21;;;;;;;33.43;12.73;;;;;;;;;;5088151;28;20091;-66
2021/04/30 02:02:47;;;;;;;29.57;11.60;;;;;;;;;;5095671;28;20030;-66
2021/04/30 02:05:12;;;;;;;31.33;13.23;;;;;;;;;;5099510;28;20044;-66
2021/04/30 02:07:38;;;;;;;33.73;13.07;;;;;;;;;;5093393;28;20039;-66
2021/04/30 02:10:05;;;;;;;32.10;12.20;;;;;;;;;;5086138;28;20024;-66
2021/04/30 02:12:30;;;;;;;30.23;12.67;;;;;;;;;;5092882;28;20035;-66
2021/04/30 02:14:56;;;;;;;34.27;13.33;;;;;;;;;;5085767;28;20024;-66
2021/04/30 02:17:21;;;;;;;35.37;12.33;;;;;;;;;;5089326;28;20096;-66
2021/04/30 02:19:46;;;;;;;36.70;12.80;;;;;;;;;;5093295;28;20016;-66
2021/04/30 02:22:11;;;;;;;37.83;13.73;;;;;;;;;;5092944;28;20024;-66
2021/04/30 02:24:37;;;;;;;32.90;12.10;;;;;;;;;;5094254;28;20457;-66
2021/04/30 02:27:02;;;;;;;38.67;14.03;;;;;;;;;;5093128;28;20378;-66
2021/04/30 02:29:27;;;;;;;36.37;14.10;;;;;;;;;;5094153;28;20103;-66
2021/04/30 02:31:53;;;;;;;38.47;13.53;;;;;;;;;;5093743;28;20032;-66
2021/04/30 02:34:18;;;;;;;36.23;13.50;;;;;;;;;;5092312;28;20032;-66
2021/04/30 02:36:43;;;;;;;35.53;13.77;;;;;;;;;;5091646;28;20558;-66
2021/04/30 02:39:08;;;;;;;42.13;14.10;;;;;;;;;;5093993;28;20291;-66
2021/04/30 02:41:34;;;;;;;36.70;13.70;;;;;;;;;;5092237;28;20468;-66
2021/04/30 02:43:59;;;;;;;47.00;15.20;;;;;;;;;;5092872;28;20433;-66
2021/04/30 02:46:25;;;;;;;37.27;14.93;;;;;;;;;;5092486;28;20020;-66
2021/04/30 02:48:50;;;;;;;37.67;13.83;;;;;;;;;;5092735;28;20031;-66
2021/04/30 02:51:15;;;;;;;35.83;14.00;;;;;;;;;;5093272;28;20023;-66
2021/04/30 02:53:40;;;;;;;35.07;13.60;;;;;;;;;;5092912;28;20032;-66
2021/04/30 02:56:06;;;;;;;36.77;13.73;;;;;;;;;;5093124;28;20496;-66
2021/04/30 02:58:31;;;;;;;35.07;15.13;;;;;;;;;;5093716;28;20029;-66
2021/04/30 03:00:58;;;;;;;38.90;15.17;;;;;;;;;;5090804;28;20453;-66
2021/04/30 03:03:23;;;;;;;38.77;14.47;;;;;;;;;;5101372;28;20027;-66
2021/04/30 03:05:48;;;;;;;35.77;14.20;;;;;;;;;;5088972;28;20052;-66
2021/04/30 03:08:13;;;;;;;33.00;13.70;;;;;;;;;;5083033;28;20063;-66
2021/04/30 03:10:39;;;;;;;37.83;14.00;;;;;;;;;;5088070;28;20760;-66
2021/04/30 03:13:04;;;;;;;41.50;15.40;;;;;;;;;;5084605;28;20130;-66
2021/04/30 03:15:29;;;;;;;38.00;13.50;;;;;;;;;;5090554;28;20127;-66
2021/04/30 03:17:55;;;;;;;36.60;14.03;;;;;;;;;;5092885;28;20035;-66
2021/04/30 03:20:20;;;;;;;41.60;16.07;;;;;;;;;;5090709;28;20036;-66
2021/04/30 03:22:46;;;;;;;44.80;14.73;;;;;;;;;;5091829;28;20032;-66
2021/04/30 03:25:12;;;;;;;45.47;14.47;;;;;;;;;;5092643;28;20016;-66
2021/04/30 03:27:38;;;;;;;38.50;15.67;;;;;;;;;;5091826;28;20109;-66
2021/04/30 03:30:04;;;;;;;39.47;15.40;;;;;;;;;;5089048;28;20078;-66
2021/04/30 03:32:29;;;;;;;38.07;14.07;;;;;;;;;;5089291;28;20106;-66
2021/04/30 03:34:54;;;;;;;35.07;14.37;;;;;;;;;;5092465;28;20158;-66
2021/04/30 03:37:21;;;;;;;41.37;13.00;;;;;;;;;;5091734;28;20028;-66
2021/04/30 03:39:46;;;;;;;35.60;13.73;;;;;;;;;;5092426;28;20020;-66
2021/04/30 03:42:11;;;;;;;40.63;14.17;;;;;;;;;;5089922;28;20047;-66
2021/04/30 03:44:36;;;;;;;41.13;15.27;;;;;;;;;;5090717;28;20055;-66
2021/04/30 03:47:02;;;;;;;43.53;15.23;;;;;;;;;;5091257;28;20465;-66
2021/04/30 03:49:27;;;;;;;36.37;14.10;;;;;;;;;;5092652;28;20118;-66
2021/04/30 03:51:52;;;;;;;43.73;15.33;;;;;;;;;;5091290;28;20024;-66
2021/04/30 03:54:17;;;;;;;44.07;15.60;;;;;;;;;;5092694;28;20032;-66
2021/04/30 03:56:43;;;;;;;37.83;13.67;;;;;;;;;;5091224;28;20036;-66
2021/04/30 03:59:08;;;;;;;37.23;14.23;;;;;;;;;;5092409;28;20126;-66
2021/04/30 04:01:33;;;;;;;38.43;14.63;;;;;;;;;;5091886;28;20024;-66
2021/04/30 04:03:58;;;;;;;42.90;14.90;;;;;;;;;;5089200;28;20043;-66
2021/04/30 04:06:24;;;;;;;36.13;13.10;;;;;;;;;;5088910;28;20023;-66
2021/04/30 04:08:49;;;;;;;45.30;14.67;;;;;;;;;;5091498;28;20117;-66
2021/04/30 04:11:14;;;;;;;37.63;14.10;;;;;;;;;;5087041;28;20039;-66
2021/04/30 04:13:39;;;;;;;40.53;15.50;;;;;;;;;;5091354;28;20032;-66
2021/04/30 04:16:05;;;;;;;39.00;14.83;;;;;;;;;;5087001;28;20038;-66
2021/04/30 04:18:30;;;;;;;40.80;13.87;;;;;;;;;;5091210;28;20495;-66
2021/04/30 04:20:56;;;;;;;38.50;13.73;;;;;;;;;;5086541;28;20411;-66
2021/04/30 04:23:21;;;;;;;37.83;14.43;;;;;;;;;;5091752;28;20036;-66
2021/04/30 04:25:46;;;;;;;37.77;13.97;;;;;;;;;;5087405;28;20078;-66
2021/04/30 04:28:12;;;;;;;36.03;14.83;;;;;;;;;;5090761;28;20101;-65
2021/04/30 04:30:40;;;;;;;34.57;14.03;;;;;;;;;;5094227;28;20027;-65
2021/04/30 04:33:06;;;;;;;34.97;13.40;;;;;;;;;;5095896;28;20558;-65
2021/04/30 04:35:31;;;;;;;35.17;13.73;;;;;;;;;;5092725;28;20032;-65
2021/04/30 04:37:56;;;;;;;39.40;14.13;;;;;;;;;;5084805;28;20448;-65
2021/04/30 04:40:22;;;;;;;41.40;14.33;;;;;;;;;;5094172;28;20023;-65
2021/04/30 04:42:48;;;;;;;35.10;14.87;;;;;;;;;;5093795;28;20461;-65
2021/04/30 04:45:13;;;;;;;34.00;13.27;;;;;;;;;;5094696;28;20051;-65
2021/04/30 04:47:39;;;;;;;40.07;13.53;;;;;;;;;;5093414;28;20085;-66
2021/04/30 04:50:04;;;;;;;33.33;13.77;;;;;;;;;;5095888;28;20035;-66
2021/04/30 04:52:30;;;;;;;30.53;12.23;;;;;;;;;;5093321;28;20066;-66
2021/04/30 04:54:55;;;;;;;31.43;11.83;;;;;;;;;;5086114;28;20032;-66
2021/04/30 04:57:20;;;;;;;30.90;12.53;;;;;;;;;;5093907;28;20028;-66
2021/04/30 04:59:46;;;;;;;28.17;11.73;;;;;;;;;;5096417;28;20173;-66
2021/04/30 05:02:11;;;;;;;32.43;13.53;;;;;;;;;;5094859;28;20024;-66
2021/04/30 05:04:36;;;;;;;26.27;11.93;;;;;;;;;;5094508;28;20101;-66
2021/04/30 05:07:01;;;;;;;24.53;11.50;;;;;;;;;;5085867;28;20113;-67
2021/04/30 05:09:28;;;;;;;25.50;11.30;;;;;;;;;;5086220;28;20024;-67
2021/04/30 05:11:53;;;;;;;23.07;10.27;;;;;;;;;;5092206;28;20036;-67
2021/04/30 05:14:19;;;;;;;26.97;11.33;;;;;;;;;;5089010;28;20032;-66
2021/04/30 05:16:44;;;;;;;26.33;10.90;;;;;;;;;;5092937;28;20035;-66
2021/04/30 05:19:09;;;;;;;29.63;13.43;;;;;;;;;;5086843;28;20046;-66
2021/04/30 05:21:36;;;;;;;29.90;11.43;;;;;;;;;;5092259;28;20477;-66
2021/04/30 05:24:01;;;;;;;30.33;11.43;;;;;;;;;;5088552;28;20384;-66
2021/04/30 05:26:27;;;;;;;33.03;13.37;;;;;;;;;;5091729;28;20103;-66
2021/04/30 05:28:53;;;;;;;25.00;11.40;;;;;;;;;;5080694;28;20384;-66
2021/04/30 05:31:18;;;;;;;30.70;12.93;;;;;;;;;;5090164;28;20024;-66
2021/04/30 05:33:43;;;;;;;26.87;11.00;;;;;;;;;;5092094;28;20473;-67
2021/04/30 05:36:09;;;;;;;26.13;10.53;;;;;;;;;;5093453;28;20036;-67
2021/04/30 05:38:34;;;;;;;27.00;11.83;;;;;;;;;;5089325;28;20030;-67
2021/04/30 05:40:59;;;;;;;26.27;10.87;;;;;;;;;;5093185;28;20468;-67
2021/04/30 05:43:25;;;;;;;27.10;12.30;;;;;;;;;;5090558;28;20464;-67
2021/04/30 05:45:50;;;;;;;22.13;11.40;;;;;;;;;;5081382;28;20036;-67
2021/04/30 05:48:16;;;;;;;25.10;11.53;;;;;;;;;;5085430;28;20054;-67
2021/04/30 05:50:41;;;;;;;24.30;11.27;;;;;;;;;;5094638;28;20490;-67
2021/04/30 05:53:06;;;;;;;22.43;10.67;;;;;;;;;;5095152;28;20028;-67
2021/04/30 05:55:32;;;;;;;23.20;11.90;;;;;;;;;;5094449;28;20093;-67
2021/04/30 05:57:57;;;;;;;30.27;11.37;;;;;;;;;;5094877;28;20035;-67
2021/04/30 06:00:22;;;;;;;27.53;12.63;;;;;;;;;;5097519;28;20020;-67
2021/04/30 06:02:47;;;;;;;26.53;10.83;;;;;;;;;;5094647;28;20035;-67
2021/04/30 06:05:13;;;;;;;28.20;10.57;;;;;;;;;;5094290;28;20521;-67
2021/04/30 06:07:38;;;;;;;23.40;11.40;;;;;;;;;;5094573;28;20455;-67
2021/04/30 06:10:04;;;;;;;25.40;12.23;;;;;;;;;;5094713;28;20381;-67
2021/04/30 06:12:30;;;;;;;28.37;12.03;;;;;;;;;;5093730;28;20418;-67
2021/04/30 06:14:55;;;;;;;24.47;11.53;;;;;;;;;;5094176;28;20032;-67
2021/04/30 06:17:20;;;;;;;28.47;11.13;;;;;;;;;;5093866;28;20103;-67
2021/04/30 06:19:46;;;;;;;22.17;10.40;;;;;;;;;;5094265;28;20098;-68
2021/04/30 06:22:11;;;;;;;24.50;11.03;;;;;;;;;;5093626;28;20024;-68
2021/04/30 06:24:37;;;;;;;23.43;11.60;;;;;;;;;;5094140;28;20046;-68
2021/04/30 06:27:02;;;;;;;27.63;11.23;;;;;;;;;;5093736;28;20055;-68
2021/04/30 06:29:27;;;;;;;21.63;10.30;;;;;;;;;;5093996;28;20488;-68
2021/04/30 06:31:54;;;;;;;25.63;11.23;;;;;;;;;;5093536;28;20077;-67
2021/04/30 06:34:20;;;;;;;21.23;10.00;;;;;;;;;;5093797;28;20035;-67
2021/04/30 06:36:45;;;;;;;20.63;9.77;;;;;;;;;;5075150;28;20447;-67
2021/04/30 06:39:11;;;;;;;21.37;9.70;;;;;;;;;;5093608;28;20028;-67
2021/04/30 06:41:36;;;;;;;20.87;10.50;;;;;;;;;;5093544;28;20032;-67
2021/04/30 06:44:02;;;;;;;20.70;9.47;;;;;;;;;;5093516;28;20086;-67
2021/04/30 06:46:27;;;;;;;20.37;9.97;;;;;;;;;;5092569;28;20024;-67
2021/04/30 06:48:53;;;;;;;23.63;10.33;;;;;;;;;;5093470;28;20031;-67
2021/04/30 06:51:18;;;;;;;19.63;10.40;;;;;;;;;;5093324;28;20028;-67
2021/04/30 06:53:44;;;;;;;22.57;10.90;;;;;;;;;;5091617;28;20035;-66
2021/04/30 06:56:09;;;;;;;22.53;11.20;;;;;;;;;;5092665;28;20034;-67
2021/04/30 06:58:35;;;;;;;24.27;10.73;;;;;;;;;;5094539;28;20573;-67
2021/04/30 07:01:00;;;;;;;22.07;10.90;;;;;;;;;;5093201;28;20429;-67
2021/04/30 07:03:25;;;;;;;22.37;10.60;;;;;;;;;;5089182;28;20438;-65
2021/04/30 07:05:51;;;;;;;25.17;10.63;;;;;;;;;;5087450;28;20483;-67
2021/04/30 07:08:16;;;;;;;24.90;10.80;;;;;;;;;;5087572;28;20028;-67
2021/04/30 07:10:41;;;;;;;27.73;11.20;;;;;;;;;;5103331;28;20050;-67
2021/04/30 07:13:10;;;;;;;24.27;11.27;;;;;;;;;;5073964;28;20476;-67
2021/04/30 07:15:35;;;;;;;26.47;11.77;;;;;;;;;;5093192;28;20032;-66
2021/04/30 07:18:01;;;;;;;27.33;12.10;;;;;;;;;;5090990;28;20032;-67
2021/04/30 07:20:26;;;;;;;29.07;11.73;;;;;;;;;;5060234;28;20027;-67
2021/04/30 07:22:51;;;;;;;23.77;11.17;;;;;;;;;;5098131;28;20470;-67
2021/04/30 07:25:16;;;;;;;23.50;10.37;;;;;;;;;;5091692;28;20061;-68
2021/04/30 07:27:42;;;;;;;23.77;11.20;;;;;;;;;;5097973;28;20047;-68
2021/04/30 07:30:07;;;;;;;22.50;10.90;;;;;;;;;;5089336;28;20032;-68
2021/04/30 07:32:32;;;;;;;24.20;11.23;;;;;;;;;;5079385;28;20039;-68
2021/04/30 07:34:58;;;;;;;25.57;11.33;;;;;;;;;;5089398;28;20070;-68
2021/04/30 07:37:23;;;;;;;22.57;9.70;;;;;;;;;;5088277;28;20081;-67
2021/04/30 07:39:48;;;;;;;20.80;9.97;;;;;;;;;;5088774;28;20032;-68
2021/04/30 07:42:14;;;;;;;23.67;10.20;;;;;;;;;;5083611;28;20452;-68
2021/04/30 07:44:39;;;;;;;20.60;10.53;;;;;;;;;;5088451;28;20392;-69
2021/04/30 07:47:04;;;;;;;25.73;10.47;;;;;;;;;;5087186;28;20366;-68
2021/04/30 07:49:31;;;;;;;21.53;11.30;;;;;;;;;;5080726;28;20039;-69
2021/04/30 07:51:56;;;;;;;20.13;10.57;;;;;;;;;;5083762;28;20024;-68
2021/04/30 07:54:21;;;;;;;21.17;10.60;;;;;;;;;;5089073;28;20392;-68
2021/04/30 07:56:47;;;;;;;19.70;10.47;;;;;;;;;;5088147;28;20016;-68
2021/04/30 07:59:12;;;;;;;20.67;10.10;;;;;;;;;;5084558;28;20028;-68
2021/04/30 08:01:38;;;;;;;20.37;9.73;;;;;;;;;;5081647;28;20051;-68
2021/04/30 08:04:03;;;;;;;19.77;10.70;;;;;;;;;;5082816;28;20507;-69
2021/04/30 08:06:29;;;;;;;18.73;9.43;;;;;;;;;;5087537;28;20322;-69
2021/04/30 08:08:54;;;;;;;20.23;9.47;;;;;;;;;;5087621;28;20028;-69
2021/04/30 08:11:19;;;;;;;18.13;9.37;;;;;;;;;;5088563;28;20093;-69
2021/04/30 08:13:45;;;;;;;17.50;9.57;;;;;;;;;;5087955;28;20032;-71
2021/04/30 08:16:10;;;;;;;19.93;10.10;;;;;;;;;;5088307;28;20056;-71
2021/04/30 08:18:35;;;;;;;16.50;9.17;;;;;;;;;;5088564;28;20182;-72
2021/04/30 08:21:00;;;;;;;17.90;10.40;;;;;;;;;;5088197;28;20035;-72
2021/04/30 08:23:26;;;;;;;18.27;9.60;;;;;;;;;;5085601;28;20184;-71
2021/04/30 08:25:51;;;;;;;16.33;9.23;;;;;;;;;;5080357;28;20029;-70
2021/04/30 08:28:16;;;;;;;16.03;8.73;;;;;;;;;;5076896;28;20043;-71
2021/04/30 08:30:41;;;;;;;17.67;9.93;;;;;;;;;;5088416;28;20036;-70
2021/04/30 08:33:07;;;;;;;18.43;9.90;;;;;;;;;;5088620;28;20024;-71
2021/04/30 08:35:32;;;;;;;21.20;10.00;;;;;;;;;;5087942;28;20067;-72
2021/04/30 08:37:59;;;;;;;19.80;10.50;;;;;;;;;;5088917;28;20421;-73
2021/04/30 08:40:24;;;;;;;19.07;9.73;;;;;;;;;;5087225;28;20034;-73
2021/04/30 08:42:52;;;;;;;17.67;10.00;;;;;;;;;;5088013;28;20099;-72
2021/04/30 08:45:18;;;;;;;18.83;9.50;;;;;;;;;;5094430;28;20028;-74
2021/04/30 08:47:44;;;;;;;16.63;9.27;;;;;;;;;;5088644;28;20108;-74
2021/04/30 08:50:10;;;;;;;20.15;9.80;;;;;;;;;;5087934;28;20028;-74
2021/04/30 08:52:35;;;;;;;16.85;8.80;;;;;;;;;;5088063;28;20031;-75
2021/04/30 08:55:05;;;;;;;17.20;9.30;;;;;;;;;;5088856;28;20059;-76
2021/04/30 08:57:30;;;;;;;19.05;9.35;;;;;;;;;;5087687;28;20036;-76
2021/04/30 08:59:57;;;;;;;18.98;9.77;;;;;;;;;;5088786;28;20050;-76
2021/04/30 09:02:30;;;;;;;17.40;9.15;;;;;;;;;;5087988;28;20114;-76
2021/04/30 09:04:56;;;;;;;16.63;9.13;;;;;;;;;;5086180;28;20048;-76
2021/04/30 09:07:24;;;;;;;15.27;9.35;;;;;;;;;;5086852;28;20032;-76
2021/04/30 09:09:57;;;;;;;16.30;9.10;;;;;;;;;;5088307;28;20031;-76
2021/04/30 09:12:23;;;;;;;13.95;8.32;;;;;;;;;;5087892;28;20039;-76
2021/04/30 09:14:48;;;;;;;15.25;9.05;;;;;;;;;;5088207;28;20073;-75
2021/04/30 09:17:15;;;;;;;12.98;8.38;;;;;;;;;;5089282;28;20415;-76
2021/04/30 09:19:48;;;;;;;16.92;8.27;;;;;;;;;;5090371;28;20432;-76
2021/04/30 09:22:25;;;;;;;12.93;8.40;;;;;;;;;;5088824;28;20031;-73
2021/04/30 09:24:51;;;;;;;14.95;8.65;;;;;;;;;;5087383;28;20567;-74
2021/04/30 09:27:29;;;;;;;13.23;8.05;;;;;;;;;;5088832;28;20559;-75
2021/04/30 09:30:13;;;;;;;12.02;7.70;;;;;;;;;;5084016;28;20536;-75
2021/04/30 09:32:59;;;;;;;12.98;7.88;;;;;;;;;;5091685;28;20482;-76
2021/04/30 09:35:24;;;;;;;11.73;7.40;;;;;;;;;;5091099;28;20391;-71
2021/04/30 09:37:49;;;;;;;11.93;7.53;;;;;;;;;;5085176;28;20035;-73
2021/04/30 09:40:17;;;;;;;10.40;7.05;;;;;;;;;;5090189;28;20488;-75
2021/04/30 09:42:43;;;;;;;10.88;6.88;;;;;;;;;;5087169;28;20024;-77
2021/04/30 09:45:09;;;;;;;11.25;7.70;;;;;;;;;;5091062;28;20425;-75
2021/04/30 09:47:35;;;;;;;10.48;7.30;;;;;;;;;;5088817;28;20105;-74
2021/04/30 09:50:05;;;;;;;13.15;8.00;;;;;;;;;;5090938;28;20032;-75
2021/04/30 09:52:30;;;;;;;12.10;7.57;;;;;;;;;;5090570;28;20106;-75
2021/04/30 09:55:01;;;;;;;13.13;7.80;;;;;;;;;;5070801;28;20111;-74
2021/04/30 09:57:27;;;;;;;12.82;7.30;;;;;;;;;;5091921;28;20400;-72
2021/04/30 09:59:53;;;;;;;14.43;8.00;;;;;;;;;;5092210;28;20109;-72
2021/04/30 10:02:20;;;;;;;13.00;8.63;;;;;;;;;;5091697;28;20028;-72
2021/04/30 10:04:46;;;;;;;12.82;7.75;;;;;;;;;;5087093;28;20131;-72
2021/04/30 10:07:14;;;;;;;14.85;8.35;;;;;;;;;;5090606;28;20024;-73
2021/04/30 10:09:40;;;;;;;12.23;8.18;;;;;;;;;;5089850;28;20036;-73
2021/04/30 10:12:17;;;;;;;13.13;7.90;;;;;;;;;;5090881;28;20141;-73
2021/04/30 10:14:43;;;;;;;11.50;7.45;;;;;;;;;;5078250;28;20039;-72
2021/04/30 10:17:08;;;;;;;12.20;7.93;;;;;;;;;;5090471;28;20032;-69
2021/04/30 10:19:33;;;;;;;12.80;8.25;;;;;;;;;;5090997;28;20089;-70
2021/04/30 10:22:00;;;;;;;12.90;7.33;;;;;;;;;;5090317;28;20055;-69
2021/04/30 10:24:25;;;;;;;14.17;8.73;;;;;;;;;;5090794;28;20384;-69
2021/04/30 10:26:54;;;;;;;15.33;8.73;;;;;;;;;;5089909;28;20039;-69
2021/04/30 10:29:22;;;;;;;19.00;8.40;;;;;;;;;;5090485;28;20036;-69
2021/04/30 10:31:50;;;;;;;12.47;7.30;;;;;;;;;;5085754;28;20035;-69
2021/04/30 10:34:23;;;;;;;12.63;7.57;;;;;;;;;;5086277;28;20486;-69
2021/04/30 10:36:50;;;;;;;12.07;7.10;;;;;;;;;;5079960;28;20035;-69
2021/04/30 10:39:23;;;;;;;12.03;7.63;;;;;;;;;;5085039;28;20472;-69
2021/04/30 10:41:48;;;;;;;12.63;6.93;;;;;;;;;;5087006;28;20047;-68
2021/04/30 10:44:18;;;;;;;12.80;7.50;;;;;;;;;;5088322;28;20056;-68
2021/04/30 10:46:47;;;;;;;11.57;7.33;;;;;;;;;;5084678;28;20020;-68
2021/04/30 10:49:19;;;;;;;15.23;7.33;;;;;;;;;;5084608;28;20134;-69
2021/04/30 10:52:04;;;;;;;11.88;6.88;;;;;;;;;;5082187;28;20027;-68
2021/04/30 10:54:33;;;;;;;13.00;7.23;;;;;;;;;;5085807;28;20036;-68
2021/04/30 10:57:04;;;;;;;11.17;6.87;;;;;;;;;;5087026;28;20063;-68
2021/04/30 10:59:38;;;;;;;13.00;6.93;;;;;;;;;;5085145;28;20551;-69
2021/04/30 11:02:19;;;;;;;12.37;7.17;;;;;;;;;;5088164;28;20461;-69
2021/04/30 11:05:03;;;;;;;10.97;6.97;;;;;;;;;;5084946;28;20081;-68
2021/04/30 11:07:33;;;;;;;9.17;5.73;;;;;;;;;;5082446;28;20050;-68
2021/04/30 11:09:58;;;;;;;10.63;6.00;;;;;;;;;;5085446;28;20031;-68
2021/04/30 11:12:24;;;;;;;14.00;7.23;;;;;;;;;;5089477;28;20388;-68
2021/04/30 11:14:59;;;;;;;10.43;6.10;;;;;;;;;;5088604;28;20028;-67
2021/04/30 11:17:42;;;;;;;10.43;5.97;;;;;;;;;;5087291;28;20027;-67
2021/04/30 11:20:11;;;;;;;10.53;6.13;;;;;;;;;;5074510;28;20575;-67
2021/04/30 11:22:36;;;;;;;11.60;6.43;;;;;;;;;;5092040;28;20028;-67
2021/04/30 11:25:02;;;;;;;12.20;6.30;;;;;;;;;;5086792;28;20097;-66
2021/04/30 11:27:28;;;;;;;11.37;6.03;;;;;;;;;;5085482;28;20028;-66
2021/04/30 11:30:14;;;;;;;12.07;6.37;;;;;;;;;;5087106;28;20392;-66
2021/04/30 11:32:48;;;;;;;10.87;5.87;;;;;;;;;;5086877;28;20090;-67
2021/04/30 11:35:14;;;;;;;11.40;6.47;;;;;;;;;;5088646;28;20051;-66
2021/04/30 11:37:40;;;;;;;11.57;6.60;;;;;;;;;;5083356;28;20032;-66
2021/04/30 11:40:05;;;;;;;13.27;6.97;;;;;;;;;;5086603;28;20102;-66
2021/04/30 11:42:31;;;;;;;11.67;7.27;;;;;;;;;;5087909;28;20106;-66
2021/04/30 11:44:57;;;;;;;13.00;7.27;;;;;;;;;;5088769;28;20050;-66
2021/04/30 11:47:28;;;;;;;12.20;6.90;;;;;;;;;;5087864;28;20019;-66
2021/04/30 11:49:54;;;;;;;14.80;6.95;;;;;;;;;;5083396;28;20020;-66
2021/04/30 11:52:27;;;;;;;13.77;7.27;;;;;;;;;;5088848;28;20132;-66
2021/04/30 11:54:59;;;;;;;11.07;6.50;;;;;;;;;;5084459;28;20054;-67
2021/04/30 11:57:24;;;;;;;;;;;;;;;;;;5089162;28;20028;-67
2021/04/30 11:59:51;;;;;;;16.40;7.15;;;;;;;;;;5087827;28;19915;-67
2021/04/30 12:02:18;;;;;;;12.20;6.70;;;;;;;;;;5085242;28;20024;-67
2021/04/30 12:04:49;;;;;;;11.17;6.30;;;;;;;;;;5090534;28;20047;-67
2021/04/30 12:07:15;;;;;;;9.63;5.67;;;;;;;;;;5090518;28;20105;-67
2021/04/30 12:09:40;;;;;;;12.57;6.40;;;;;;;;;;5089035;28;20055;-67
2021/04/30 12:12:13;;;;;;;12.50;5.77;;;;;;;;;;5086485;28;20028;-67
2021/04/30 12:14:46;;;;;;;13.63;5.73;;;;;;;;;;5082279;28;20020;-67
2021/04/30 12:17:11;;;;;;;;;;;;;;;;;;5083294;28;20078;-67
2021/04/30 12:19:36;;;;;;;8.90;5.35;;;;;;;;;;5084485;28;19912;-67
2021/04/30 12:22:15;;;;;;;9.33;5.60;;;;;;;;;;5096837;28;20433;-67
2021/04/30 12:24:41;;;;;;;9.90;5.83;;;;;;;;;;5088952;28;20451;-67
2021/04/30 12:27:06;;;;;;;10.43;6.10;;;;;;;;;;5076208;28;20032;-67
2021/04/30 12:29:31;;;;;;;10.67;5.73;;;;;;;;;;5085470;28;20056;-67
2021/04/30 12:31:56;;;;;;;14.67;5.27;;;;;;;;;;5084115;28;20027;-67
2021/04/30 12:34:22;;;;;;;10.93;5.53;;;;;;;;;;5079770;28;20112;-67
2021/04/30 12:36:47;;;;;;;12.53;6.33;;;;;;;;;;5074784;28;20040;-67
2021/04/30 12:39:16;;;;;;;10.20;5.40;;;;;;;;;;5079280;28;20028;-66
2021/04/30 12:41:43;;;;;;;11.77;5.70;;;;;;;;;;5083835;28;20396;-66
2021/04/30 12:44:10;;;;;;;9.03;5.47;;;;;;;;;;5077885;28;20024;-66
2021/04/30 12:46:39;;;;;;;9.43;5.93;;;;;;;;;;5079827;28;20118;-66
2021/04/30 12:49:05;;;;;;;9.53;5.23;;;;;;;;;;5081757;28;20028;-66
2021/04/30 12:51:32;;;;;;;8.40;5.50;;;;;;;;;;5085288;28;20034;-66
2021/04/30 12:53:58;;;;;;;9.73;5.77;;;;;;;;;;5090369;28;20023;-65
2021/04/30 12:56:27;;;;;;;8.95;5.55;;;;;;;;;;5085208;28;20032;-66
2021/04/30 12:59:12;;;;;;;8.93;5.38;;;;;;;;;;5089310;28;20094;-66
2021/04/30 13:01:41;;;;;;;8.60;5.38;;;;;;;;;;5088447;28;20119;-66
2021/04/30 13:04:06;;;;;;;8.48;5.88;;;;;;;;;;5088209;28;20523;-66
2021/04/30 13:06:35;;;;;;;8.43;5.32;;;;;;;;;;5087092;28;20036;-66
2021/04/30 13:09:01;;;;;;;9.77;5.68;;;;;;;;;;5084896;28;20557;-66
2021/04/30 13:11:29;;;;;;;9.50;5.90;;;;;;;;;;5076899;28;20037;-65
2021/04/30 13:13:55;;;;;;;9.30;6.05;;;;;;;;;;5084343;28;20066;-65
2021/04/30 13:16:31;;;;;;;8.38;5.60;;;;;;;;;;5088252;28;20028;-66
2021/04/30 13:19:12;;;;;;;8.48;5.45;;;;;;;;;;5083855;28;20414;-65
2021/04/30 13:21:39;;;;;;;9.00;5.88;;;;;;;;;;5087817;28;20074;-65
2021/04/30 13:24:10;;;;;;;8.05;5.50;;;;;;;;;;5088678;28;20388;-65
2021/04/30 13:26:35;;;;;;;8.40;5.55;;;;;;;;;;5091492;28;20154;-65
2021/04/30 13:29:12;;;;;;;7.85;5.30;;;;;;;;;;5088768;28;20527;-65
2021/04/30 13:31:37;;;;;;;8.23;5.50;;;;;;;;;;5088381;28;20063;-66
2021/04/30 13:34:06;;;;;;;9.25;5.65;;;;;;;;;;5087412;28;20059;-65
2021/04/30 13:36:31;;;;;;;7.47;5.43;;;;;;;;;;5080776;28;20669;-65
2021/04/30 13:39:00;;;;;;;10.40;5.90;;;;;;;;;;5090104;28;20028;-65
2021/04/30 13:41:34;;;;;;;8.63;5.55;;;;;;;;;;5085994;28;20273;-65
2021/04/30 13:44:22;;;;;;;8.20;5.53;;;;;;;;;;5082336;28;20024;-65
2021/04/30 13:46:48;;;;;;;10.23;5.22;;;;;;;;;;5092909;28;20151;-65
2021/04/30 13:49:13;;;;;;;8.98;5.32;;;;;;;;;;5084267;28;20081;-65
2021/04/30 13:51:39;;;;;;;11.20;5.78;;;;;;;;;;5088503;28;20416;-65
2021/04/30 13:54:05;;;;;;;8.75;5.65;;;;;;;;;;5086319;28;20480;-65
2021/04/30 13:56:30;;;;;;;9.38;6.10;;;;;;;;;;5091821;28;20360;-65
2021/04/30 13:59:02;;;;;;;8.48;5.60;;;;;;;;;;5090115;28;20085;-65
2021/04/30 14:01:27;;;;;;;;;;;;;;;;;;5090287;28;20085;-65
2021/04/30 14:03:52;;;;;;;8.00;4.75;;;;;;;;;;5087381;28;20310;-66
2021/04/30 14:06:17;;;;;;;9.13;6.00;;;;;;;;;;5084223;28;20763;-66
2021/04/30 14:08:43;;;;;;;9.23;5.82;;;;;;;;;;5095792;28;20028;-66
2021/04/30 14:11:08;;;;;;;9.48;6.07;;;;;;;;;;5086089;28;20963;-66
2021/04/30 14:13:33;;;;;;;8.45;5.57;;;;;;;;;;5087577;28;20093;-66
2021/04/30 14:15:58;;;;;;;8.88;5.68;;;;;;;;;;5082100;28;20028;-66
2021/04/30 14:18:24;;;;;;;9.25;5.63;;;;;;;;;;5085583;28;20054;-66
2021/04/30 14:20:49;;;;;;;10.88;6.13;;;;;;;;;;5080416;28;20059;-66
2021/04/30 14:23:14;;;;;;;9.23;6.07;;;;;;;;;;5087945;28;20386;-66